createdAt,value
2022-11-26T00:01:19.192Z,5.65
2022-11-26T00:04:04.628Z,5.62
2022-11-26T00:06:49.782Z,5.62
2022-11-26T00:09:34.686Z,5.57
2022-11-26T00:12:21.341Z,5.58
2022-11-26T00:15:15.952Z,5.62
2022-11-26T00:18:01.157Z,5.58
2022-11-26T00:20:50.344Z,5.59
2022-11-26T00:23:35.548Z,5.58
2022-11-26T00:26:22.738Z,5.62
2022-11-26T00:29:10.145Z,5.58
2022-11-26T00:31:55.530Z,5.60
2022-11-26T00:34:40.867Z,5.61
2022-11-26T00:37:41.757Z,5.62
2022-11-26T00:40:31.976Z,5.57
2022-11-26T00:43:18.116Z,5.51
2022-11-26T00:46:03.328Z,5.59
2022-11-26T00:48:48.865Z,5.47
2022-11-26T00:51:34.752Z,5.31
2022-11-26T00:54:21.511Z,5.37
2022-11-26T00:57:10.583Z,5.43
2022-11-26T00:59:55.868Z,5.19
2022-11-26T01:02:40.671Z,5.20
2022-11-26T01:05:28.537Z,5.21
2022-11-26T01:08:29.571Z,5.16
2022-11-26T01:11:19.134Z,5.06
2022-11-26T01:14:04.260Z,4.98
2022-11-26T01:16:56.723Z,4.88
2022-11-26T01:19:41.832Z,4.62
2022-11-26T01:22:26.732Z,4.70
2022-11-26T01:25:11.995Z,4.75
2022-11-26T01:27:57.635Z,4.68
2022-11-26T01:30:43.674Z,4.56
2022-11-26T01:33:28.790Z,4.42
2022-11-26T01:36:27.453Z,4.46
2022-11-26T01:39:18.847Z,4.43
2022-11-26T01:42:26.389Z,4.32
2022-11-26T01:45:17.041Z,4.17
2022-11-26T01:48:02.319Z,4.19
2022-11-26T01:50:52.300Z,4.17
2022-11-26T01:53:43.675Z,4.39
2022-11-26T01:56:37.236Z,4.48
2022-11-26T01:59:26.885Z,4.40
2022-11-26T02:02:12.043Z,4.32
2022-11-26T02:05:29.863Z,4.56
2022-11-26T02:08:14.891Z,4.41
2022-11-26T02:11:02.484Z,4.41
2022-11-26T02:13:51.740Z,4.48
2022-11-26T02:16:49.068Z,4.58
2022-11-26T02:20:04.968Z,4.64
2022-11-26T02:22:50.080Z,4.45
2022-11-26T02:26:05.751Z,4.43
2022-11-26T02:29:12.094Z,4.42
2022-11-26T02:32:08.392Z,4.24
2022-11-26T02:35:05.624Z,3.96
2022-11-26T02:38:09.761Z,3.76
2022-11-26T02:40:54.909Z,3.80
2022-11-26T02:43:40.450Z,3.82
2022-11-26T02:46:25.929Z,3.80
2022-11-26T02:49:14.719Z,3.90
2022-11-26T02:52:03.244Z,3.99
2022-11-26T02:54:50.858Z,3.89
2022-11-26T02:57:45.405Z,3.94
2022-11-26T03:00:33.826Z,3.96
2022-11-26T03:03:27.881Z,4.01
2022-11-26T03:06:14.947Z,4.26
2022-11-26T03:09:00.882Z,4.36
2022-11-26T03:11:45.975Z,4.39
2022-11-26T03:14:31.453Z,4.44
2022-11-26T03:17:16.939Z,4.45
2022-11-26T03:20:02.416Z,4.48
2022-11-26T03:22:47.836Z,4.46
2022-11-26T03:25:34.564Z,4.75
2022-11-26T03:28:19.920Z,4.80
2022-11-26T03:31:05.206Z,4.79
2022-11-26T03:33:50.390Z,4.82
2022-11-26T03:36:35.408Z,4.93
2022-11-26T03:39:20.284Z,5.04
2022-11-26T03:42:05.469Z,5.14
2022-11-26T03:44:50.519Z,5.19
2022-11-26T03:47:35.431Z,5.22
2022-11-26T03:50:20.476Z,5.38
2022-11-26T03:53:05.525Z,5.29
2022-11-26T03:55:50.589Z,5.46
2022-11-26T03:58:35.502Z,5.38
2022-11-26T04:01:21.206Z,5.55
2022-11-26T04:04:06.659Z,5.47
2022-11-26T04:06:51.647Z,5.49
2022-11-26T04:09:36.846Z,5.56
2022-11-26T04:12:22.215Z,5.40
2022-11-26T04:15:09.329Z,5.54
2022-11-26T04:17:54.703Z,5.42
2022-11-26T04:20:39.716Z,5.48
2022-11-26T04:23:24.603Z,5.55
2022-11-26T04:26:09.891Z,5.39
2022-11-26T04:28:54.991Z,5.50
2022-11-26T04:31:39.797Z,5.63
2022-11-26T04:34:25.257Z,5.55
2022-11-26T04:37:10.252Z,5.58
2022-11-26T04:39:55.667Z,5.57
2022-11-26T04:42:41.055Z,5.68
2022-11-26T04:45:26.871Z,5.64
2022-11-26T04:48:12.304Z,5.67
2022-11-26T04:50:57.596Z,5.68
2022-11-26T04:53:42.618Z,5.68
2022-11-26T04:56:27.836Z,5.61
2022-11-26T04:59:13.194Z,5.60
2022-11-26T05:01:58.156Z,5.61
2022-11-26T05:04:43.344Z,5.66
2022-11-26T05:07:28.603Z,5.73
2022-11-26T05:10:13.853Z,5.68
2022-11-26T05:12:59.560Z,5.67
2022-11-26T05:15:44.843Z,5.84
2022-11-26T05:18:30.314Z,5.79
2022-11-26T05:21:15.590Z,5.78
2022-11-26T05:24:00.366Z,5.80
2022-11-26T05:26:45.879Z,5.85
2022-11-26T05:29:31.064Z,6.06
2022-11-26T05:32:16.508Z,5.96
2022-11-26T05:35:01.775Z,5.77
2022-11-26T05:37:46.733Z,5.88
2022-11-26T05:40:32.513Z,5.79
2022-11-26T05:43:17.845Z,5.73
2022-11-26T05:46:07.518Z,5.58
2022-11-26T05:48:52.799Z,5.51
2022-11-26T05:51:38.223Z,5.64
2022-11-26T05:54:23.323Z,5.64
2022-11-26T05:57:08.529Z,5.54
2022-11-26T05:59:53.348Z,5.35
2022-11-26T06:02:38.907Z,5.35
2022-11-26T06:05:24.251Z,5.28
2022-11-26T06:08:09.392Z,5.20
2022-11-26T06:10:55.061Z,5.16
2022-11-26T06:13:40.382Z,5.02
2022-11-26T06:16:26.218Z,4.97
2022-11-26T06:19:11.891Z,5.07
2022-11-26T06:21:57.052Z,5.08
2022-11-26T06:24:42.326Z,4.89
2022-11-26T06:27:27.315Z,4.79
2022-11-26T06:30:13.341Z,4.86
2022-11-26T06:32:58.958Z,4.74
2022-11-26T06:35:44.382Z,4.71
2022-11-26T06:38:29.355Z,4.62
2022-11-26T06:41:15.184Z,4.86
2022-11-26T06:44:00.492Z,4.67
2022-11-26T06:46:45.764Z,4.63
2022-11-26T06:49:30.742Z,4.59
2022-11-26T06:52:16.074Z,4.46
2022-11-26T06:55:01.823Z,4.60
2022-11-26T06:57:51.632Z,4.50
2022-11-26T07:00:37.092Z,4.36
2022-11-26T07:03:26.212Z,4.29
2022-11-26T07:06:16.323Z,4.34
2022-11-26T07:09:07.121Z,4.24
2022-11-26T07:11:52.032Z,4.20
2022-11-26T07:14:37.353Z,4.24
2022-11-26T07:17:22.968Z,4.29
2022-11-26T07:20:08.704Z,4.18
2022-11-26T07:22:53.827Z,4.12
2022-11-26T07:25:39.222Z,4.20
2022-11-26T07:28:24.633Z,4.34
2022-11-26T07:31:16.492Z,4.44
2022-11-26T07:34:02.394Z,4.48
2022-11-26T07:36:47.708Z,4.52
2022-11-26T07:39:33.332Z,4.65
2022-11-26T07:42:18.615Z,4.64
2022-11-26T07:45:03.750Z,4.68
2022-11-26T07:47:48.909Z,4.76
2022-11-26T07:50:34.606Z,4.89
2022-11-26T07:53:19.880Z,4.86
2022-11-26T07:56:05.668Z,4.87
2022-11-26T07:58:50.680Z,4.97
2022-11-26T08:01:36.752Z,5.07
2022-11-26T08:04:22.062Z,5.23
2022-11-26T08:07:07.002Z,5.16
2022-11-26T08:09:52.377Z,5.32
2022-11-26T08:12:37.358Z,5.24
2022-11-26T08:15:25.777Z,5.19
2022-11-26T08:18:12.763Z,5.24
2022-11-26T08:20:58.647Z,5.17
2022-11-26T08:23:43.944Z,5.28
2022-11-26T08:26:35.932Z,5.27
2022-11-26T08:29:23.531Z,5.24
2022-11-26T08:32:09.837Z,5.28
2022-11-26T08:34:59.646Z,5.35
2022-11-26T08:37:44.780Z,5.43
2022-11-26T08:40:30.881Z,5.44
2022-11-26T08:43:19.201Z,5.53
2022-11-26T08:46:04.905Z,5.55
2022-11-26T08:48:58.384Z,5.66
2022-11-26T08:51:43.903Z,5.66
2022-11-26T08:54:29.418Z,5.55
2022-11-26T08:57:14.735Z,5.59
2022-11-26T09:00:00.105Z,5.72
2022-11-26T09:02:45.022Z,5.85
2022-11-26T09:05:31.343Z,5.90
2022-11-26T09:08:16.749Z,5.81
2022-11-26T09:11:01.914Z,5.81
2022-11-26T09:13:47.439Z,5.82
2022-11-26T09:16:33.156Z,5.88
2022-11-26T09:19:19.284Z,5.88
2022-11-26T09:22:04.754Z,5.90
2022-11-26T09:24:50.436Z,5.85
2022-11-26T09:27:35.472Z,5.93
2022-11-26T09:30:20.592Z,6.04
2022-11-26T09:33:05.565Z,6.15
2022-11-26T09:35:51.040Z,6.16
2022-11-26T09:38:37.213Z,6.10
2022-11-26T09:41:38.591Z,6.28
2022-11-26T09:45:02.436Z,6.45
2022-11-26T09:47:51.937Z,6.48
2022-11-26T09:50:36.930Z,6.58
2022-11-26T09:53:26.196Z,6.63
2022-11-26T09:56:18.550Z,6.79
2022-11-26T09:59:06.859Z,6.97
2022-11-26T10:01:52.001Z,7.00
2022-11-26T10:04:37.447Z,7.02
2022-11-26T10:07:25.699Z,7.10
2022-11-26T10:10:31.242Z,7.12
2022-11-26T10:13:26.505Z,7.14
2022-11-26T10:16:27.561Z,7.25
2022-11-26T10:19:28.432Z,7.35
2022-11-26T10:22:34.315Z,7.44
2022-11-26T10:25:22.714Z,7.53
2022-11-26T10:28:33.152Z,7.81
2022-11-26T10:31:24.476Z,7.71
2022-11-26T10:34:46.700Z,7.74
2022-11-26T10:37:32.356Z,7.99
2022-11-26T10:40:26.601Z,8.17
2022-11-26T10:43:24.053Z,8.30
2022-11-26T10:46:29.161Z,8.24
2022-11-26T10:49:16.869Z,8.32
2022-11-26T10:52:07.998Z,8.30
2022-11-26T10:55:20.802Z,8.34
2022-11-26T10:58:14.626Z,8.49
2022-11-26T11:01:02.964Z,8.39
2022-11-26T11:04:10.287Z,8.53
2022-11-26T11:06:56.122Z,8.42
2022-11-26T11:09:41.406Z,8.32
2022-11-26T11:12:26.808Z,8.61
2022-11-26T11:15:18.226Z,8.45
2022-11-26T11:18:06.578Z,8.69
2022-11-26T11:20:59.319Z,8.70
2022-11-26T11:24:07.779Z,8.85
2022-11-26T11:26:53.509Z,8.74
2022-11-26T11:29:39.328Z,8.73
2022-11-26T11:32:35.504Z,8.91
2022-11-26T11:35:29.891Z,9.01
2022-11-26T11:38:29.835Z,8.79
2022-11-26T11:41:43.150Z,8.89
2022-11-26T11:44:50.964Z,8.88
2022-11-26T11:47:43.762Z,8.80
2022-11-26T11:50:42.097Z,8.53
2022-11-26T11:53:49.985Z,8.62
2022-11-26T11:57:03.425Z,8.67
2022-11-26T11:59:51.307Z,8.50
2022-11-26T12:02:47.031Z,8.42
2022-11-26T12:05:54.048Z,8.45
2022-11-26T12:08:45.302Z,8.53
2022-11-26T12:11:34.689Z,8.53
2022-11-26T12:14:38.912Z,8.51
2022-11-26T12:17:53.994Z,8.59
2022-11-26T12:21:10.188Z,8.65
2022-11-26T12:23:57.795Z,8.73
2022-11-26T12:26:51.028Z,8.69
2022-11-26T12:29:47.353Z,8.71
2022-11-26T12:32:51.652Z,8.80
2022-11-26T12:35:43.197Z,9.03
2022-11-26T12:38:38.338Z,9.04
2022-11-26T12:41:31.758Z,9.10
2022-11-26T12:44:23.329Z,9.16
2022-11-26T12:47:14.558Z,9.12
2022-11-26T12:50:02.582Z,9.22
2022-11-26T12:53:03.451Z,9.42
2022-11-26T12:55:48.476Z,9.47
2022-11-26T12:58:52.555Z,9.55
2022-11-26T13:01:39.386Z,9.54
2022-11-26T13:04:44.058Z,9.61
2022-11-26T13:07:38.577Z,9.54
2022-11-26T13:10:50.880Z,9.54
2022-11-26T13:13:46.915Z,9.73
2022-11-26T13:16:47.659Z,10.00
2022-11-26T13:19:45.091Z,9.95
2022-11-26T13:23:08.558Z,9.75
2022-11-26T13:26:28.206Z,9.75
2022-11-26T13:29:31.864Z,9.97
2022-11-26T13:32:32.774Z,9.84
2022-11-26T13:35:26.906Z,9.75
2022-11-26T13:38:27.163Z,9.76
2022-11-26T13:41:18.547Z,9.67
2022-11-26T13:44:32.261Z,9.55
2022-11-26T13:47:43.739Z,9.58
2022-11-26T13:50:33.539Z,9.50
2022-11-26T13:53:27.123Z,9.48
2022-11-26T13:56:13.419Z,9.42
2022-11-26T13:59:04.998Z,9.46
2022-11-26T14:01:50.309Z,9.52
2022-11-26T14:04:35.562Z,9.40
2022-11-26T14:07:21.018Z,9.35
2022-11-26T14:10:28.648Z,9.47
2022-11-26T14:13:14.385Z,9.41
2022-11-26T14:16:08.855Z,9.39
2022-11-26T14:18:55.994Z,9.30
2022-11-26T14:22:09.103Z,9.27
2022-11-26T14:24:57.813Z,9.22
2022-11-26T14:27:55.076Z,9.15
2022-11-26T14:30:40.528Z,9.14
2022-11-26T14:33:28.136Z,9.03
2022-11-26T14:36:22.557Z,9.01
2022-11-26T14:39:15.172Z,9.00
2022-11-26T14:42:05.675Z,8.98
2022-11-26T14:45:06.742Z,8.95
2022-11-26T14:47:52.474Z,8.90
2022-11-26T14:50:37.730Z,8.91
2022-11-26T14:53:30.191Z,8.90
2022-11-26T14:56:18.794Z,8.84
2022-11-26T14:59:05.380Z,8.82
2022-11-26T15:01:50.389Z,8.79
2022-11-26T15:04:36.088Z,8.81
2022-11-26T15:07:25.299Z,8.74
2022-11-26T15:10:15.174Z,8.74
2022-11-26T15:13:13.604Z,8.66
2022-11-26T15:16:00.959Z,8.63
2022-11-26T15:18:46.263Z,8.57
2022-11-26T15:21:31.734Z,8.53
2022-11-26T15:24:20.280Z,8.52
2022-11-26T15:27:06.114Z,8.49
2022-11-26T15:29:51.310Z,8.47
2022-11-26T15:32:36.817Z,8.44
2022-11-26T15:35:22.304Z,8.43
2022-11-26T15:38:18.167Z,8.43
2022-11-26T15:41:16.959Z,8.42
2022-11-26T15:44:02.361Z,8.43
2022-11-26T15:46:51.238Z,8.48
2022-11-26T15:49:40.516Z,8.39
2022-11-26T15:52:31.225Z,8.36
2022-11-26T15:55:27.796Z,8.39
2022-11-26T15:58:20.386Z,8.31
2022-11-26T16:01:15.932Z,8.35
2022-11-26T16:04:01.677Z,8.36
2022-11-26T16:06:46.947Z,8.32
2022-11-26T16:09:32.654Z,8.39
2022-11-26T16:12:33.352Z,8.39
2022-11-26T16:15:21.673Z,8.35
2022-11-26T16:18:16.174Z,8.22
2022-11-26T16:21:29.090Z,8.35
2022-11-26T16:24:26.125Z,8.27
2022-11-26T16:27:17.235Z,8.22
2022-11-26T16:30:14.036Z,8.27
2022-11-26T16:32:59.572Z,8.24
2022-11-26T16:35:46.502Z,8.27
2022-11-26T16:38:32.246Z,8.26
2022-11-26T16:41:19.664Z,8.20
2022-11-26T16:44:04.984Z,8.07
2022-11-26T16:46:51.300Z,8.03
2022-11-26T16:49:36.438Z,7.91
2022-11-26T16:52:22.171Z,7.86
2022-11-26T16:55:11.209Z,7.82
2022-11-26T16:57:59.887Z,7.78
2022-11-26T17:00:45.565Z,7.75
2022-11-26T17:03:30.778Z,7.76
2022-11-26T17:06:20.490Z,7.76
2022-11-26T17:09:05.535Z,7.75
2022-11-26T17:11:50.562Z,7.77
2022-11-26T17:14:35.467Z,7.75
2022-11-26T17:17:25.282Z,7.71
2022-11-26T17:20:15.316Z,7.68
2022-11-26T17:23:00.252Z,7.69
2022-11-26T17:25:49.751Z,7.59
2022-11-26T17:28:35.008Z,7.55
2022-11-26T17:31:20.474Z,7.53
2022-11-26T17:34:05.706Z,7.50
2022-11-26T17:36:53.044Z,7.44
2022-11-26T17:39:38.171Z,7.46
2022-11-26T17:42:23.732Z,7.40
2022-11-26T17:45:09.916Z,7.29
2022-11-26T17:47:55.244Z,7.29
2022-11-26T17:50:40.669Z,7.28
2022-11-26T17:53:26.090Z,7.28
2022-11-26T17:56:22.288Z,7.30
2022-11-26T17:59:07.419Z,7.31
2022-11-26T18:03:47.981Z,7.28
2022-11-26T18:06:58.255Z,7.24
2022-11-26T18:09:43.867Z,7.21
2022-11-26T18:12:28.960Z,7.21
2022-11-26T18:15:25.648Z,7.15
2022-11-26T18:18:10.733Z,7.06
2022-11-26T18:20:55.599Z,7.03
2022-11-26T18:23:40.458Z,7.02
2022-11-26T18:26:26.109Z,6.99
2022-11-26T18:29:11.831Z,6.94
2022-11-26T18:31:57.213Z,6.91
2022-11-26T18:34:42.497Z,6.88
2022-11-26T18:37:27.773Z,6.88
2022-11-26T18:40:16.494Z,6.82
2022-11-26T18:43:01.639Z,6.80
2022-11-26T18:45:46.724Z,6.77
2022-11-26T18:48:34.408Z,6.78
2022-11-26T18:51:19.471Z,6.82
2022-11-26T18:54:04.709Z,6.78
2022-11-26T18:56:50.063Z,6.76
2022-11-26T18:59:35.424Z,6.66
2022-11-26T19:02:20.275Z,6.66
2022-11-26T19:05:05.900Z,6.61
2022-11-26T19:07:50.960Z,6.58
2022-11-26T19:10:37.413Z,6.53
2022-11-26T19:13:22.328Z,6.48
2022-11-26T19:16:15.836Z,6.47
2022-11-26T19:19:02.162Z,6.42
2022-11-26T19:21:47.045Z,6.40
2022-11-26T19:24:32.303Z,6.39
2022-11-26T19:27:17.154Z,6.26
2022-11-26T19:30:02.293Z,6.21
2022-11-26T19:32:47.365Z,6.24
2022-11-26T19:35:33.016Z,6.15
2022-11-26T19:38:18.452Z,6.17
2022-11-26T19:41:03.876Z,6.15
2022-11-26T19:43:49.155Z,6.19
2022-11-26T19:46:36.886Z,6.29
2022-11-26T19:49:21.950Z,6.34
2022-11-26T19:52:07.305Z,6.12
2022-11-26T19:54:52.229Z,6.06
2022-11-26T19:57:37.177Z,5.99
2022-11-26T20:00:22.676Z,6.07
2022-11-26T20:03:08.037Z,6.07
2022-11-26T20:05:53.687Z,6.12
2022-11-26T20:08:38.605Z,6.07
2022-11-26T20:11:24.035Z,5.98
2022-11-26T20:14:09.150Z,5.89
2022-11-26T20:16:59.441Z,6.09
2022-11-26T20:19:46.462Z,6.03
2022-11-26T20:22:31.944Z,5.79
2022-11-26T20:25:16.900Z,5.52
2022-11-26T20:28:02.960Z,5.55
2022-11-26T20:30:48.115Z,5.53
2022-11-26T20:33:34.855Z,5.53
2022-11-26T20:36:21.650Z,5.34
2022-11-26T20:39:07.061Z,5.24
2022-11-26T20:41:52.206Z,5.13
2022-11-26T20:44:37.530Z,5.17
2022-11-26T20:47:22.728Z,5.14
2022-11-26T20:50:09.095Z,5.06
2022-11-26T20:52:53.892Z,5.03
2022-11-26T20:55:38.765Z,5.16
2022-11-26T20:58:25.636Z,5.18
2022-11-26T21:01:22.699Z,5.20
2022-11-26T21:04:07.946Z,5.07
2022-11-26T21:06:52.778Z,4.99
2022-11-26T21:09:37.891Z,5.05
2022-11-26T21:12:23.398Z,4.96
2022-11-26T21:15:08.945Z,4.81
2022-11-26T21:17:54.215Z,4.47
2022-11-26T21:20:40.864Z,4.26
2022-11-26T21:23:27.166Z,4.15
2022-11-26T21:26:16.671Z,4.07
2022-11-26T21:29:02.275Z,4.09
2022-11-26T21:31:47.701Z,4.32
2022-11-26T21:34:33.211Z,4.41
2022-11-26T21:37:19.013Z,4.33
2022-11-26T21:40:04.051Z,4.31
2022-11-26T21:42:49.328Z,4.23
2022-11-26T21:45:34.680Z,4.30
2022-11-26T21:48:19.548Z,4.26
2022-11-26T21:51:09.297Z,4.41
2022-11-26T21:53:55.690Z,4.53
2022-11-26T21:56:41.141Z,4.33
2022-11-26T21:59:26.469Z,4.29
2022-11-26T22:02:12.889Z,4.30
2022-11-26T22:04:58.300Z,4.38
2022-11-26T22:07:44.079Z,4.42
2022-11-26T22:10:33.308Z,4.39
2022-11-26T22:13:21.267Z,4.44
2022-11-26T22:16:08.248Z,4.44
2022-11-26T22:18:53.989Z,4.54
2022-11-26T22:21:41.014Z,4.42
2022-11-26T22:24:25.933Z,4.44
2022-11-26T22:27:11.172Z,4.50
2022-11-26T22:29:55.968Z,4.60
2022-11-26T22:32:41.500Z,4.75
2022-11-26T22:35:26.754Z,4.65
2022-11-26T22:38:11.946Z,4.68
2022-11-26T22:41:01.235Z,4.64
2022-11-26T22:43:46.652Z,4.64
2022-11-26T22:46:32.517Z,4.65
2022-11-26T22:49:17.962Z,4.71
2022-11-26T22:52:03.450Z,4.74
2022-11-26T22:54:48.578Z,4.80
2022-11-26T22:57:34.435Z,4.72
2022-11-26T23:00:46.952Z,4.71
2022-11-26T23:03:33.933Z,4.64
2022-11-26T23:06:22.511Z,4.62
2022-11-26T23:09:09.175Z,4.63
2022-11-26T23:11:54.202Z,4.71
2022-11-26T23:14:39.378Z,4.67
2022-11-26T23:17:24.319Z,4.62
2022-11-26T23:20:10.283Z,4.69
2022-11-26T23:22:55.095Z,4.59
2022-11-26T23:25:41.107Z,4.66
2022-11-26T23:28:26.417Z,4.69
2022-11-26T23:31:24.426Z,4.74
2022-11-26T23:34:10.071Z,4.67
2022-11-26T23:36:55.295Z,4.63
2022-11-26T23:39:40.772Z,4.79
2022-11-26T23:42:25.982Z,4.61
2022-11-26T23:45:11.312Z,4.67
2022-11-26T23:47:56.913Z,4.62
2022-11-26T23:50:42.766Z,4.53
2022-11-26T23:53:28.038Z,4.63
2022-11-26T23:56:19.420Z,4.67
2022-11-26T23:59:05.123Z,4.62
